createdAt,value
2022-11-06T00:01:45.567Z,65.51
2022-11-06T00:03:46.878Z,65.32
2022-11-06T00:06:06.933Z,65.79
2022-11-06T00:08:08.212Z,65.75
2022-11-06T00:10:09.520Z,65.85
2022-11-06T00:12:10.785Z,65.46
2022-11-06T00:14:12.072Z,65.95
2022-11-06T00:16:13.578Z,65.65
2022-11-06T00:18:15.216Z,65.61
2022-11-06T00:20:16.921Z,66.22
2022-11-06T00:22:18.265Z,66.38
2022-11-06T00:24:19.533Z,65.91
2022-11-06T00:26:20.820Z,65.98
2022-11-06T00:28:22.108Z,65.96
2022-11-06T00:30:23.810Z,66.09
2022-11-06T00:32:25.139Z,65.95
2022-11-06T00:34:26.479Z,65.88
2022-11-06T00:36:27.832Z,65.78
2022-11-06T00:38:29.108Z,65.72
2022-11-06T00:40:30.447Z,65.71
2022-11-06T00:42:31.903Z,65.61
2022-11-06T00:44:33.184Z,65.64
2022-11-06T00:46:34.511Z,65.92
2022-11-06T00:48:35.810Z,65.23
2022-11-06T00:50:37.102Z,65.34
2022-11-06T00:52:38.421Z,65.45
2022-11-06T00:54:39.850Z,66.10
2022-11-06T00:56:41.125Z,65.62
2022-11-06T00:58:42.468Z,65.32
2022-11-06T01:00:43.731Z,65.11
2022-11-06T01:02:45.575Z,64.84
2022-11-06T01:04:47.248Z,64.70
2022-11-06T01:06:48.559Z,64.77
2022-11-06T01:08:49.895Z,64.93
2022-11-06T01:10:51.174Z,64.88
2022-11-06T01:12:52.481Z,65.01
2022-11-06T01:14:53.846Z,65.10
2022-11-06T01:16:55.172Z,64.71
2022-11-06T01:18:56.446Z,65.05
2022-11-06T01:20:57.760Z,64.65
2022-11-06T01:22:59.028Z,64.81
2022-11-06T01:25:00.828Z,65.06
2022-11-06T01:29:23.505Z,65.35
2022-11-06T01:31:24.768Z,65.63
2022-11-06T01:33:26.028Z,51.16
2022-11-06T01:35:27.340Z,61.94
2022-11-06T01:37:28.618Z,62.13
2022-11-06T01:39:29.897Z,62.09
2022-11-06T01:41:31.230Z,62.54
2022-11-06T01:43:32.485Z,63.68
2022-11-06T01:45:33.779Z,64.26
2022-11-06T01:47:35.092Z,64.62
2022-11-06T01:49:36.404Z,64.78
2022-11-06T01:51:37.677Z,65.42
2022-11-06T01:53:38.987Z,65.98
2022-11-06T01:55:40.312Z,65.87
2022-11-06T01:57:41.580Z,66.58
2022-11-06T01:59:42.916Z,66.66
2022-11-06T02:01:44.302Z,66.69
2022-11-06T02:03:45.873Z,67.00
2022-11-06T02:05:47.148Z,66.80
2022-11-06T02:07:48.471Z,66.98
2022-11-06T02:09:49.765Z,66.92
2022-11-06T02:11:51.038Z,67.09
2022-11-06T02:13:52.303Z,67.06
2022-11-06T02:15:53.623Z,66.96
2022-11-06T02:17:55.004Z,67.02
2022-11-06T02:19:56.313Z,67.23
2022-11-06T02:21:57.610Z,67.23
2022-11-06T02:23:58.936Z,67.37
2022-11-06T02:26:00.254Z,67.16
2022-11-06T02:28:03.364Z,67.36
2022-11-06T02:30:04.652Z,67.52
2022-11-06T02:32:06.978Z,67.58
2022-11-06T02:34:08.324Z,67.38
2022-11-06T02:36:09.803Z,67.70
2022-11-06T02:38:11.311Z,67.85
2022-11-06T02:40:12.892Z,68.00
2022-11-06T02:42:14.169Z,67.96
2022-11-06T02:44:15.477Z,68.14
2022-11-06T02:46:16.804Z,67.86
2022-11-06T02:48:18.115Z,68.35
2022-11-06T02:50:19.389Z,68.20
2022-11-06T02:52:20.939Z,68.38
2022-11-06T02:54:22.210Z,68.65
2022-11-06T02:56:23.489Z,68.97
2022-11-06T02:58:24.790Z,68.77
2022-11-06T03:00:26.115Z,68.90
2022-11-06T03:02:27.478Z,69.41
2022-11-06T03:04:28.854Z,69.12
2022-11-06T03:06:30.242Z,69.06
2022-11-06T03:08:31.838Z,69.08
2022-11-06T03:10:33.133Z,69.28
2022-11-06T03:12:34.473Z,69.32
2022-11-06T03:14:35.805Z,69.43
2022-11-06T03:16:37.150Z,69.74
2022-11-06T03:18:38.421Z,69.59
2022-11-06T03:20:39.692Z,69.68
2022-11-06T03:22:40.948Z,69.20
2022-11-06T03:24:42.226Z,69.58
2022-11-06T03:26:43.600Z,69.79
2022-11-06T03:28:44.913Z,69.43
2022-11-06T03:30:46.206Z,69.08
2022-11-06T03:32:47.508Z,68.78
2022-11-06T03:34:48.792Z,68.71
2022-11-06T03:36:50.065Z,68.77
2022-11-06T03:38:51.350Z,68.77
2022-11-06T03:40:52.653Z,68.37
2022-11-06T03:42:54.234Z,68.34
2022-11-06T03:44:55.524Z,68.56
2022-11-06T03:46:56.861Z,68.33
2022-11-06T03:48:58.215Z,68.43
2022-11-06T03:50:59.484Z,68.58
2022-11-06T03:53:00.804Z,68.16
2022-11-06T03:55:02.121Z,68.67
2022-11-06T03:57:03.401Z,68.66
2022-11-06T03:59:04.796Z,68.71
2022-11-06T04:01:06.798Z,68.34
2022-11-06T04:03:08.174Z,68.67
2022-11-06T04:05:09.602Z,68.75
2022-11-06T04:07:10.882Z,68.42
2022-11-06T04:09:30.941Z,68.54
2022-11-06T04:11:50.652Z,68.81
2022-11-06T04:13:57.743Z,69.37
2022-11-06T04:15:59.303Z,69.46
2022-11-06T04:18:00.612Z,69.34
2022-11-06T04:20:01.935Z,70.07
2022-11-06T04:22:03.225Z,69.86
2022-11-06T04:24:22.969Z,69.90
2022-11-06T04:26:36.208Z,70.54
2022-11-06T04:28:37.617Z,70.12
2022-11-06T04:30:38.934Z,70.14
2022-11-06T04:32:40.271Z,70.63
2022-11-06T04:34:41.545Z,70.80
2022-11-06T04:36:42.854Z,70.76
2022-11-06T04:38:44.135Z,70.87
2022-11-06T04:40:45.401Z,70.58
2022-11-06T04:42:46.794Z,71.00
2022-11-06T04:44:48.826Z,70.91
2022-11-06T04:46:50.105Z,71.17
2022-11-06T04:48:51.616Z,70.76
2022-11-06T04:50:52.971Z,70.78
2022-11-06T04:52:54.264Z,70.73
2022-11-06T04:54:55.545Z,70.49
2022-11-06T04:56:56.814Z,70.77
2022-11-06T04:58:58.230Z,70.55
2022-11-06T05:00:59.638Z,70.10
2022-11-06T05:03:00.960Z,70.13
2022-11-06T05:05:02.269Z,70.09
2022-11-06T05:07:03.551Z,69.57
2022-11-06T05:09:04.863Z,69.42
2022-11-06T05:11:06.526Z,69.61
2022-11-06T05:13:07.802Z,69.83
2022-11-06T05:15:09.308Z,69.37
2022-11-06T05:17:10.624Z,69.47
2022-11-06T05:19:11.935Z,69.73
2022-11-06T05:21:31.945Z,69.57
2022-11-06T05:23:33.469Z,69.76
2022-11-06T05:25:34.820Z,69.41
2022-11-06T05:27:36.105Z,69.27
2022-11-06T05:29:37.447Z,69.29
2022-11-06T05:31:38.715Z,69.29
2022-11-06T05:33:39.974Z,69.32
2022-11-06T05:35:41.637Z,69.65
2022-11-06T05:37:42.913Z,69.42
2022-11-06T05:39:44.235Z,69.64
2022-11-06T05:41:45.514Z,70.04
2022-11-06T05:43:46.932Z,70.39
2022-11-06T05:45:48.277Z,70.94
2022-11-06T05:47:49.561Z,70.93
2022-11-06T05:49:50.833Z,70.71
2022-11-06T05:51:52.151Z,70.71
2022-11-06T05:53:53.419Z,70.53
2022-11-06T05:55:54.729Z,70.77
2022-11-06T05:57:56.040Z,71.03
2022-11-06T05:59:57.327Z,70.67
2022-11-06T06:01:59.610Z,70.86
2022-11-06T06:04:01.175Z,71.23
2022-11-06T06:06:02.485Z,70.97
2022-11-06T06:08:03.832Z,71.04
2022-11-06T06:10:05.101Z,71.18
2022-11-06T06:12:06.358Z,71.37
2022-11-06T06:14:07.650Z,71.54
2022-11-06T06:16:08.980Z,71.35
2022-11-06T06:18:10.638Z,71.57
2022-11-06T06:20:12.081Z,71.56
2022-11-06T06:22:13.361Z,71.64
2022-11-06T06:24:14.668Z,71.85
2022-11-06T06:26:15.952Z,71.29
2022-11-06T06:28:17.280Z,70.93
2022-11-06T06:30:18.820Z,70.64
2022-11-06T06:32:20.720Z,70.33
2022-11-06T06:34:22.220Z,70.20
2022-11-06T06:36:23.513Z,70.71
2022-11-06T06:38:26.017Z,70.35
2022-11-06T06:40:27.501Z,70.15
2022-11-06T06:42:31.280Z,69.60
2022-11-06T06:44:32.868Z,70.25
2022-11-06T06:46:34.216Z,70.09
2022-11-06T06:48:35.553Z,69.96
2022-11-06T06:50:36.993Z,69.67
2022-11-06T06:52:38.306Z,69.91
2022-11-06T06:54:40.068Z,69.75
2022-11-06T06:56:41.543Z,69.97
2022-11-06T06:58:42.913Z,69.49
2022-11-06T07:00:44.236Z,69.62
2022-11-06T07:02:45.572Z,69.80
2022-11-06T07:04:46.914Z,69.74
2022-11-06T07:06:48.209Z,69.52
2022-11-06T07:08:49.481Z,70.00
2022-11-06T07:10:50.777Z,69.80
2022-11-06T07:12:52.050Z,69.92
2022-11-06T07:14:53.365Z,70.49
2022-11-06T07:16:54.633Z,70.54
2022-11-06T07:18:58.832Z,70.54
2022-11-06T07:21:00.171Z,70.44
2022-11-06T07:23:01.445Z,70.53
2022-11-06T07:25:02.770Z,70.94
2022-11-06T07:27:04.744Z,71.18
2022-11-06T07:29:06.069Z,70.83
2022-11-06T07:31:07.337Z,71.36
2022-11-06T07:33:08.779Z,71.11
2022-11-06T07:35:10.044Z,71.40
2022-11-06T07:37:11.356Z,71.18
2022-11-06T07:39:12.677Z,71.67
2022-11-06T07:41:13.949Z,72.02
2022-11-06T07:43:15.430Z,71.53
2022-11-06T07:45:16.788Z,71.80
2022-11-06T07:47:18.052Z,71.74
2022-11-06T07:49:19.367Z,71.93
2022-11-06T07:51:20.636Z,71.50
2022-11-06T07:53:21.975Z,71.75
2022-11-06T07:55:23.249Z,71.62
2022-11-06T07:57:24.511Z,71.15
2022-11-06T07:59:25.820Z,70.59
2022-11-06T08:01:27.160Z,70.40
2022-11-06T08:03:30.280Z,70.44
2022-11-06T08:05:32.802Z,70.11
2022-11-06T08:07:34.065Z,61.46
2022-11-06T08:09:35.334Z,57.44
2022-11-06T08:11:36.808Z,64.81
2022-11-06T08:13:38.164Z,63.64
2022-11-06T08:15:39.801Z,63.15
2022-11-06T08:17:41.087Z,63.50
2022-11-06T08:19:42.440Z,64.27
2022-11-06T08:21:43.711Z,64.44
2022-11-06T08:23:45.010Z,64.59
2022-11-06T08:25:46.358Z,65.38
2022-11-06T08:27:47.637Z,65.94
2022-11-06T08:29:48.908Z,66.44
2022-11-06T08:31:53.237Z,66.17
2022-11-06T08:33:54.552Z,66.42
2022-11-06T08:35:55.834Z,66.36
2022-11-06T08:37:57.145Z,66.45
2022-11-06T08:39:58.489Z,66.56
2022-11-06T08:41:59.808Z,66.91
2022-11-06T08:44:03.986Z,66.85
2022-11-06T08:46:05.320Z,67.14
2022-11-06T08:48:07.293Z,67.00
2022-11-06T08:50:08.638Z,67.13
2022-11-06T08:52:10.821Z,67.31
2022-11-06T08:54:12.297Z,66.99
2022-11-06T08:56:14.296Z,66.72
2022-11-06T08:58:15.676Z,66.58
2022-11-06T09:00:17.011Z,67.00
2022-11-06T09:02:18.353Z,66.74
2022-11-06T09:04:19.667Z,66.57
2022-11-06T09:06:20.938Z,67.04
2022-11-06T09:08:25.204Z,66.57
2022-11-06T09:10:26.477Z,66.94
2022-11-06T09:12:27.829Z,66.77
2022-11-06T09:14:29.104Z,66.73
2022-11-06T09:16:33.081Z,66.80
2022-11-06T09:18:34.409Z,66.68
2022-11-06T09:20:35.688Z,66.88
2022-11-06T09:22:36.970Z,67.35
2022-11-06T09:25:02.128Z,66.82
2022-11-06T09:26:59.806Z,67.37
2022-11-06T09:29:01.104Z,66.74
2022-11-06T09:31:02.433Z,66.54
2022-11-06T09:33:03.720Z,66.77
2022-11-06T09:35:05.034Z,66.30
2022-11-06T09:37:06.312Z,66.38
2022-11-06T09:39:07.628Z,66.81
2022-11-06T09:41:08.889Z,66.47
2022-11-06T09:43:10.326Z,66.02
2022-11-06T09:45:11.737Z,66.78
2022-11-06T09:47:13.225Z,66.17
2022-11-06T09:49:14.501Z,66.63
2022-11-06T09:51:15.773Z,66.23
2022-11-06T09:53:17.508Z,66.37
2022-11-06T09:55:19.751Z,63.81
2022-11-06T09:57:21.180Z,63.78
2022-11-06T09:59:22.459Z,63.65
2022-11-06T10:01:27.283Z,62.25
2022-11-06T10:03:29.021Z,63.16
2022-11-06T10:05:30.360Z,63.08
2022-11-06T10:07:31.620Z,61.75
2022-11-06T10:09:35.638Z,62.61
2022-11-06T10:11:36.963Z,63.15
2022-11-06T10:13:38.221Z,62.73
2022-11-06T10:15:39.805Z,63.18
2022-11-06T10:17:41.082Z,63.01
2022-11-06T10:19:42.570Z,62.57
2022-11-06T10:21:43.933Z,62.64
2022-11-06T10:23:45.257Z,62.49
2022-11-06T10:25:46.560Z,62.95
2022-11-06T10:27:48.080Z,62.06
2022-11-06T10:29:49.397Z,62.96
2022-11-06T10:31:50.706Z,63.44
2022-11-06T10:33:52.033Z,64.11
2022-11-06T10:35:53.362Z,62.73
2022-11-06T10:37:54.862Z,63.42
2022-11-06T10:39:56.184Z,63.28
2022-11-06T10:41:57.476Z,63.75
2022-11-06T10:43:58.783Z,63.72
2022-11-06T10:46:00.105Z,63.87
2022-11-06T10:48:03.464Z,63.92
2022-11-06T10:50:04.746Z,64.01
2022-11-06T10:52:08.830Z,64.42
2022-11-06T10:54:10.477Z,63.90
2022-11-06T10:56:13.743Z,64.00
2022-11-06T10:58:17.185Z,63.80
2022-11-06T11:00:21.695Z,63.13
2022-11-06T11:02:23.075Z,63.05
2022-11-06T11:04:24.393Z,63.17
2022-11-06T11:06:25.693Z,63.87
2022-11-06T11:08:26.995Z,65.08
2022-11-06T11:10:28.519Z,65.78
2022-11-06T11:12:29.792Z,65.93
2022-11-06T11:14:31.093Z,66.16
2022-11-06T11:16:32.412Z,65.97
2022-11-06T11:18:34.461Z,66.11
2022-11-06T11:20:35.838Z,65.94
2022-11-06T11:22:37.220Z,65.73
2022-11-06T11:24:38.527Z,65.81
2022-11-06T11:26:39.873Z,65.78
2022-11-06T11:28:41.179Z,65.95
2022-11-06T11:30:42.480Z,66.03
2022-11-06T11:32:44.021Z,66.32
2022-11-06T11:34:49.392Z,66.31
2022-11-06T11:36:52.837Z,66.21
2022-11-06T11:38:54.213Z,66.48
2022-11-06T11:40:55.592Z,66.35
2022-11-06T11:42:56.848Z,66.24
2022-11-06T11:44:58.167Z,66.87
2022-11-06T11:46:59.424Z,66.54
2022-11-06T11:49:02.256Z,66.82
2022-11-06T11:51:03.528Z,66.93
2022-11-06T11:53:09.920Z,66.69
2022-11-06T11:55:11.903Z,67.07
2022-11-06T11:57:13.172Z,67.22
2022-11-06T11:59:14.622Z,67.12
2022-11-06T12:01:15.903Z,67.21
2022-11-06T12:03:17.223Z,67.39
2022-11-06T12:05:18.510Z,67.32
2022-11-06T12:07:19.789Z,67.38
2022-11-06T12:09:21.065Z,67.28
2022-11-06T12:11:22.371Z,67.44
2022-11-06T12:13:23.849Z,67.53
2022-11-06T12:15:25.168Z,67.37
2022-11-06T12:17:26.615Z,67.85
2022-11-06T12:19:27.888Z,67.55
2022-11-06T12:21:29.182Z,67.89
2022-11-06T12:23:33.509Z,67.96
2022-11-06T12:25:34.841Z,66.79
2022-11-06T12:27:36.132Z,65.54
2022-11-06T12:29:43.442Z,65.67
2022-11-06T12:31:44.784Z,65.97
2022-11-06T12:34:05.831Z,65.67
2022-11-06T12:36:07.410Z,65.79
2022-11-06T12:38:11.708Z,65.50
2022-11-06T12:40:13.805Z,65.59
2022-11-06T12:42:15.125Z,65.73
2022-11-06T12:44:17.095Z,65.96
2022-11-06T12:46:18.447Z,65.58
2022-11-06T12:48:19.746Z,65.52
2022-11-06T12:50:21.072Z,65.68
2022-11-06T12:52:22.569Z,65.39
2022-11-06T12:54:24.661Z,64.98
2022-11-06T12:56:25.929Z,65.30
2022-11-06T12:58:27.215Z,65.29
2022-11-06T13:00:31.410Z,65.30
2022-11-06T13:02:33.143Z,66.48
2022-11-06T13:04:34.490Z,66.54
2022-11-06T13:06:36.033Z,67.23
2022-11-06T13:08:37.289Z,66.91
2022-11-06T13:10:38.588Z,67.68
2022-11-06T13:12:39.866Z,67.65
2022-11-06T13:14:41.141Z,67.58
2022-11-06T13:16:42.468Z,67.26
2022-11-06T13:18:43.722Z,66.25
2022-11-06T13:20:44.980Z,64.25
2022-11-06T13:22:49.417Z,64.12
2022-11-06T13:24:50.690Z,64.39
2022-11-06T13:26:52.037Z,64.79
2022-11-06T13:28:57.055Z,65.02
2022-11-06T13:30:59.119Z,64.75
2022-11-06T13:33:01.287Z,64.63
2022-11-06T13:35:02.568Z,64.79
2022-11-06T13:37:03.857Z,65.41
2022-11-06T13:39:05.316Z,65.23
2022-11-06T13:41:06.638Z,65.32
2022-11-06T13:43:07.965Z,65.72
2022-11-06T13:45:09.261Z,65.75
2022-11-06T13:47:10.569Z,65.46
2022-11-06T13:49:11.846Z,66.56
2022-11-06T13:51:13.180Z,66.85
2022-11-06T13:53:14.440Z,66.06
2022-11-06T13:55:15.713Z,65.18
2022-11-06T13:57:17.006Z,65.02
2022-11-06T13:59:21.149Z,64.75
2022-11-06T14:01:30.947Z,64.98
2022-11-06T14:03:32.317Z,65.89
2022-11-06T14:05:33.584Z,66.45
2022-11-06T14:07:34.862Z,66.65
2022-11-06T14:09:39.137Z,67.23
2022-11-06T14:11:40.392Z,67.17
2022-11-06T14:13:41.848Z,67.34
2022-11-06T14:15:43.705Z,67.30
2022-11-06T14:17:44.989Z,67.46
2022-11-06T14:19:50.683Z,67.32
2022-11-06T14:21:58.324Z,67.29
2022-11-06T14:23:59.612Z,67.48
2022-11-06T14:26:00.928Z,67.82
2022-11-06T14:28:02.193Z,67.54
2022-11-06T14:30:05.379Z,67.67
2022-11-06T14:32:08.594Z,67.88
2022-11-06T14:34:10.309Z,68.09
2022-11-06T14:36:11.834Z,68.21
2022-11-06T14:38:13.543Z,67.94
2022-11-06T14:40:14.990Z,68.05
2022-11-06T14:42:16.323Z,68.24
2022-11-06T14:44:17.597Z,68.36
2022-11-06T14:46:22.327Z,68.35
2022-11-06T14:48:24.287Z,68.72
2022-11-06T14:50:25.958Z,68.56
2022-11-06T14:52:27.228Z,68.67
2022-11-06T14:54:28.552Z,68.94
2022-11-06T14:56:29.841Z,68.68
2022-11-06T14:58:31.146Z,68.65
2022-11-06T15:00:35.297Z,68.26
2022-11-06T15:02:37.384Z,68.42
2022-11-06T15:04:38.749Z,68.25
2022-11-06T15:06:40.153Z,67.96
2022-11-06T15:08:41.427Z,68.08
2022-11-06T15:10:42.737Z,67.92
2022-11-06T15:12:44.109Z,68.40
2022-11-06T15:14:45.401Z,68.14
2022-11-06T15:16:47.296Z,68.58
2022-11-06T15:18:51.626Z,68.15
2022-11-06T15:20:52.892Z,68.24
2022-11-06T15:22:54.153Z,68.59
2022-11-06T15:24:55.437Z,68.48
2022-11-06T15:26:56.727Z,68.48
2022-11-06T15:28:58.001Z,68.01
2022-11-06T15:30:59.325Z,67.71
2022-11-06T15:33:00.602Z,67.86
2022-11-06T15:35:01.895Z,67.43
2022-11-06T15:37:08.993Z,67.54
2022-11-06T15:39:10.274Z,67.69
2022-11-06T15:41:11.541Z,67.55
2022-11-06T15:43:13.119Z,67.72
2022-11-06T15:45:15.707Z,67.90
2022-11-06T15:47:16.993Z,67.45
2022-11-06T15:49:21.537Z,67.63
2022-11-06T15:51:23.086Z,67.41
2022-11-06T15:53:24.368Z,67.86
2022-11-06T15:55:25.734Z,67.21
2022-11-06T15:57:27.007Z,66.16
2022-11-06T15:59:28.282Z,66.23
2022-11-06T16:01:30.363Z,66.95
2022-11-06T16:03:32.169Z,66.51
2022-11-06T16:05:33.606Z,66.16
2022-11-06T16:07:35.234Z,66.32
2022-11-06T16:09:36.562Z,66.20
2022-11-06T16:11:37.845Z,66.17
2022-11-06T16:13:39.165Z,65.39
2022-11-06T16:15:40.800Z,65.46
2022-11-06T16:17:46.176Z,65.21
2022-11-06T16:19:50.644Z,65.36
2022-11-06T16:21:56.294Z,65.16
2022-11-06T16:23:57.590Z,65.37
2022-11-06T16:25:58.905Z,65.26
2022-11-06T16:28:00.241Z,65.62
2022-11-06T16:30:03.177Z,65.31
2022-11-06T16:32:04.465Z,65.87
2022-11-06T16:34:05.795Z,66.11
2022-11-06T16:36:07.072Z,66.08
2022-11-06T16:38:38.622Z,65.69
2022-11-06T16:40:32.415Z,66.21
2022-11-06T16:42:38.726Z,66.40
2022-11-06T16:44:40.037Z,66.44
2022-11-06T16:46:41.317Z,66.49
2022-11-06T16:48:43.136Z,66.24
2022-11-06T16:50:44.537Z,66.39
2022-11-06T16:52:54.953Z,66.21
2022-11-06T16:54:56.321Z,66.45
2022-11-06T16:56:57.589Z,66.29
2022-11-06T16:58:59.372Z,66.17
2022-11-06T17:01:00.758Z,65.86
2022-11-06T17:03:02.328Z,66.12
2022-11-06T17:05:04.360Z,65.92
2022-11-06T17:07:05.688Z,65.93
2022-11-06T17:09:09.682Z,65.94
2022-11-06T17:11:11.313Z,66.36
2022-11-06T17:13:13.520Z,66.58
2022-11-06T17:15:19.336Z,66.63
2022-11-06T17:17:20.591Z,66.83
2022-11-06T17:19:21.877Z,66.63
2022-11-06T17:21:23.198Z,66.47
2022-11-06T17:23:24.745Z,66.73
2022-11-06T17:25:26.085Z,66.16
2022-11-06T17:27:27.428Z,66.14
2022-11-06T17:29:31.644Z,65.65
2022-11-06T17:31:32.937Z,65.38
2022-11-06T17:33:34.646Z,65.42
2022-11-06T17:35:36.164Z,65.06
2022-11-06T17:37:37.520Z,65.00
2022-11-06T17:39:38.843Z,64.49
2022-11-06T17:41:40.274Z,64.85
2022-11-06T17:43:41.578Z,64.73
2022-11-06T17:45:42.900Z,64.32
2022-11-06T17:47:44.190Z,64.50
2022-11-06T17:49:59.081Z,64.39
2022-11-06T17:52:00.790Z,64.66
2022-11-06T17:54:02.257Z,64.13
2022-11-06T17:56:07.045Z,63.87
2022-11-06T17:58:08.337Z,63.60
2022-11-06T18:00:11.435Z,62.64
2022-11-06T18:02:12.940Z,62.15
2022-11-06T18:04:14.333Z,62.02
2022-11-06T18:06:19.419Z,62.16
2022-11-06T18:08:20.695Z,61.91
2022-11-06T18:10:30.685Z,61.64
2022-11-06T18:12:32.233Z,61.59
2022-11-06T18:14:33.500Z,61.48
2022-11-06T18:16:43.586Z,60.98
2022-11-06T18:18:45.320Z,61.11
2022-11-06T18:20:46.673Z,60.43
2022-11-06T18:22:51.109Z,61.50
2022-11-06T18:24:52.384Z,61.29
2022-11-06T18:26:54.426Z,61.94
2022-11-06T18:28:55.739Z,62.37
2022-11-06T18:30:57.443Z,62.32
2022-11-06T18:33:10.813Z,62.93
2022-11-06T18:35:15.143Z,62.67
2022-11-06T18:37:17.468Z,62.99
2022-11-06T18:39:27.678Z,63.23
2022-11-06T18:41:32.125Z,63.08
2022-11-06T18:43:33.444Z,63.35
2022-11-06T18:45:37.547Z,62.94
2022-11-06T18:47:39.012Z,63.46
2022-11-06T18:49:49.280Z,63.95
2022-11-06T18:51:56.710Z,62.91
2022-11-06T18:54:00.751Z,63.29
2022-11-06T18:56:11.388Z,64.10
2022-11-06T18:58:30.731Z,63.95
2022-11-06T19:00:47.489Z,64.18
2022-11-06T19:02:49.644Z,64.01
2022-11-06T19:04:51.883Z,63.84
2022-11-06T19:07:02.096Z,63.70
2022-11-06T19:09:06.146Z,64.45
2022-11-06T19:11:08.244Z,63.87
2022-11-06T19:13:25.457Z,64.26
2022-11-06T19:16:03.804Z,63.18
2022-11-06T19:18:08.521Z,63.83
2022-11-06T19:20:20.188Z,63.83
2022-11-06T19:22:21.457Z,63.19
2022-11-06T19:24:29.026Z,62.87
2022-11-06T19:26:39.479Z,62.53
2022-11-06T19:28:44.589Z,62.48
2022-11-06T19:30:45.855Z,62.81
2022-11-06T19:32:56.066Z,62.15
2022-11-06T19:35:03.337Z,62.03
2022-11-06T19:37:05.503Z,62.54
2022-11-06T19:39:07.280Z,62.55
2022-11-06T19:41:11.341Z,62.66
2022-11-06T19:43:13.828Z,62.17
2022-11-06T19:45:18.365Z,62.59
2022-11-06T19:47:19.641Z,62.39
2022-11-06T19:49:21.005Z,62.56
2022-11-06T19:51:22.370Z,64.15
2022-11-06T19:53:26.696Z,63.50
2022-11-06T19:55:28.119Z,63.74
2022-11-06T19:57:30.523Z,63.64
2022-11-06T19:59:31.946Z,63.72
2022-11-06T20:01:34.465Z,63.96
2022-11-06T20:03:37.893Z,64.30
2022-11-06T20:05:39.442Z,64.20
2022-11-06T20:07:43.574Z,64.36
2022-11-06T20:09:44.854Z,64.18
2022-11-06T20:11:46.217Z,64.41
2022-11-06T20:13:53.717Z,64.73
2022-11-06T20:15:54.975Z,64.95
2022-11-06T20:17:56.269Z,65.22
2022-11-06T20:20:00.517Z,65.25
2022-11-06T20:22:02.442Z,65.84
2022-11-06T20:24:03.741Z,65.85
2022-11-06T20:26:05.040Z,65.55
2022-11-06T20:28:06.634Z,66.12
2022-11-06T20:30:07.916Z,66.01
2022-11-06T20:32:09.800Z,66.12
2022-11-06T20:34:11.180Z,66.66
2022-11-06T20:36:12.766Z,65.45
2022-11-06T20:38:17.156Z,65.35
2022-11-06T20:40:18.424Z,65.78
2022-11-06T20:42:19.782Z,65.32
2022-11-06T20:44:21.093Z,64.35
2022-11-06T20:46:22.683Z,65.16
2022-11-06T20:48:26.889Z,65.72
2022-11-06T20:50:28.160Z,65.34
2022-11-06T20:52:29.589Z,65.47
2022-11-06T20:54:30.881Z,64.97
2022-11-06T20:56:32.157Z,64.78
2022-11-06T20:58:33.597Z,65.24
2022-11-06T21:00:34.873Z,64.49
2022-11-06T21:02:36.287Z,64.81
2022-11-06T21:04:37.673Z,65.39
2022-11-06T21:06:39.289Z,64.21
2022-11-06T21:08:40.616Z,64.02
2022-11-06T21:10:41.938Z,63.92
2022-11-06T21:12:44.036Z,63.36
2022-11-06T21:14:45.619Z,63.21
2022-11-06T21:16:47.116Z,63.50
2022-11-06T21:18:48.427Z,63.63
2022-11-06T21:20:49.706Z,62.99
2022-11-06T21:22:50.980Z,63.50
2022-11-06T21:24:52.285Z,64.03
2022-11-06T21:26:55.818Z,62.59
2022-11-06T21:28:57.089Z,62.12
2022-11-06T21:30:58.412Z,62.05
2022-11-06T21:32:59.749Z,62.39
2022-11-06T21:35:01.042Z,63.06
2022-11-06T21:37:03.082Z,52.25
2022-11-06T21:39:04.539Z,55.48
2022-11-06T21:41:06.160Z,57.32
2022-11-06T21:43:07.953Z,57.22
2022-11-06T21:45:14.573Z,57.54
2022-11-06T21:47:16.160Z,58.46
2022-11-06T21:49:17.698Z,58.75
2022-11-06T21:51:19.075Z,59.44
2022-11-06T21:53:39.281Z,59.69
2022-11-06T21:55:58.866Z,59.86
2022-11-06T21:58:00.821Z,59.94
2022-11-06T22:00:02.146Z,59.69
2022-11-06T22:02:03.505Z,59.69
2022-11-06T22:04:04.886Z,60.04
2022-11-06T22:06:06.206Z,60.67
2022-11-06T22:08:07.500Z,60.68
2022-11-06T22:10:08.778Z,60.86
2022-11-06T22:12:10.045Z,59.97
2022-11-06T22:14:11.328Z,59.82
2022-11-06T22:16:12.732Z,59.85
2022-11-06T22:18:14.454Z,60.22
2022-11-06T22:20:16.283Z,60.48
2022-11-06T22:22:17.553Z,60.48
2022-11-06T22:24:18.884Z,60.48
2022-11-06T22:26:20.171Z,60.87
2022-11-06T22:28:21.446Z,60.69
2022-11-06T22:30:22.700Z,60.89
2022-11-06T22:32:23.974Z,61.30
2022-11-06T22:34:25.317Z,61.06
2022-11-06T22:36:26.658Z,61.47
2022-11-06T22:38:27.965Z,61.45
2022-11-06T22:40:29.261Z,61.96
2022-11-06T22:42:30.531Z,61.45
2022-11-06T22:44:32.856Z,61.06
2022-11-06T22:46:34.604Z,57.90
2022-11-06T22:48:36.046Z,55.21
2022-11-06T22:50:37.322Z,52.20
2022-11-06T22:52:38.650Z,52.14
2022-11-06T22:54:39.941Z,55.68
2022-11-06T22:56:41.266Z,56.07
2022-11-06T22:58:42.592Z,55.92
2022-11-06T23:00:43.907Z,56.50
2022-11-06T23:02:45.230Z,57.00
2022-11-06T23:04:46.581Z,57.68
2022-11-06T23:06:47.911Z,57.79
2022-11-06T23:08:49.187Z,58.11
2022-11-06T23:10:50.544Z,58.89
2022-11-06T23:12:51.826Z,59.15
2022-11-06T23:14:53.394Z,59.53
2022-11-06T23:16:57.779Z,59.83
2022-11-06T23:18:59.058Z,59.92
2022-11-06T23:21:00.324Z,59.74
2022-11-06T23:23:01.638Z,59.97
2022-11-06T23:25:02.940Z,60.36
2022-11-06T23:27:04.241Z,60.53
2022-11-06T23:29:05.577Z,60.40
2022-11-06T23:31:07.015Z,60.48
2022-11-06T23:33:08.337Z,60.45
2022-11-06T23:35:13.292Z,60.94
2022-11-06T23:37:15.500Z,60.72
2022-11-06T23:39:17.009Z,60.93
2022-11-06T23:41:36.970Z,60.56
2022-11-06T23:43:38.226Z,51.48
2022-11-06T23:45:48.546Z,51.96
2022-11-06T23:47:50.248Z,55.35
2022-11-06T23:49:51.564Z,56.24
2022-11-06T23:51:52.901Z,55.89
2022-11-06T23:53:54.198Z,57.25
2022-11-06T23:55:55.597Z,57.82
2022-11-06T23:57:56.982Z,58.22
2022-11-06T23:59:58.322Z,59.22
